Airfield :
LOGIN :

Register | Disclaimer

   EN    FR    IT 

 










Legend :    VFR   Marginal VFR   IFR   Intensive IFR   Very Intensive IFR
Visi :
Ceiling :
>= 8 km
>= 3000ft
5 to 8 km
1000 to 3000 ft
1500m to 5 km
500 to 1000 ft
800 to 1500m
200 to 500 ft
< 800m
< 200 ft
Symbols :   Thunderstorms  Fog  Heavy snow  Heavy precipitations  Wind > 20 kt
SIGMETs :     Misc.  Thunderstorms  Icing  Turbulence  Mountain Waves  Volcanic Ashes







- Airport Elevation : 796 ft
- IATA code : SYT
- Download approach charts


LFLN - Saint-Yan

CURRENT METAR :
  • 160600Z AUTO VRB02KT CAVOK 11/11 Q1023 TEMPO 0500 BCFG VV///

EXPIRED METARs :
  • 160530Z AUTO 16001KT CAVOK 10/10 Q1023
  • 160500Z AUTO 00000KT 5000 BR VV/// 09/09 Q1023
  • 160430Z AUTO 00000KT 0350 R33/0600U FG VV/// 07/07 Q1023
  • 160400Z AUTO VRB01KT 0900 0500 R33/0700D FG VV/// 07/07 Q1023
  • 160330Z AUTO 00000KT 0700 0600 R33/0750D FG VV/// 07/07 Q1023

TAF TAF LFLN
Valid from the 16 at 06:00 until the 16 at 15:00 UTC


160500Z 1606/1615 VRB02KT CAVOK
PROB40
TEMPO 1606/1608 0500 BCFG BKN002
PROB30
TEMPO 1606/1607 0300 FG VV///
No reported NOTAMs for that airfield.



MET'MAP, your aeronautical weather chart ! - Copyright ORBIFLY December 2007 - Disclaimer

ORBIFLY MET'MAP TEAM :

Programming & Development : Alexandra Zaïnal
Concept & Development : Baudouin d'Aumeries
Co-Development & Prog : Marc-Olivier Méhu
Technical & hardware support : Manuel Goepfert

Contact : metmap@orbifly.com




SOURCES & CREDITS :

   NOAA